createdAt,value
2019-04-22T00:01:19.661Z,100984.61
2019-04-22T00:03:55.161Z,100980.33
2019-04-22T00:06:44.341Z,100983.89
2019-04-22T00:09:26.862Z,100976.16
2019-04-22T00:11:59.288Z,100975.45
2019-04-22T00:14:28.068Z,100976.20
2019-04-22T00:17:07.012Z,100981.20
2019-04-22T00:19:46.529Z,100981.50
2019-04-22T00:22:22.204Z,100982.00
2019-04-22T00:24:51.138Z,100979.57
2019-04-22T00:27:32.071Z,100977.22
2019-04-22T00:32:42.068Z,100980.58
2019-04-22T00:35:18.090Z,100985.89
2019-04-22T00:37:59.805Z,100982.10
2019-04-22T00:40:34.121Z,100984.39
2019-04-22T00:43:05.110Z,100986.88
2019-04-22T00:48:21.013Z,100997.06
2019-04-22T00:53:33.392Z,100995.75
2019-04-22T01:01:20.726Z,100994.59
2019-04-22T01:04:05.542Z,100996.22
2019-04-22T01:06:27.366Z,100992.30
2019-04-22T01:09:04.613Z,100992.17
2019-04-22T01:11:33.631Z,100989.44
2019-04-22T01:14:07.818Z,100994.67
2019-04-22T01:16:48.585Z,100994.62
2019-04-22T01:19:24.759Z,100999.03
2019-04-22T01:22:02.868Z,101003.14
2019-04-22T01:24:32.776Z,101005.65
2019-04-22T01:27:03.677Z,101002.55
2019-04-22T01:29:39.945Z,100993.78
2019-04-22T01:32:00.229Z,100994.77
2019-04-22T01:34:51.620Z,101000.76
2019-04-22T01:37:28.739Z,100997.07
2019-04-22T01:40:09.675Z,101000.85
2019-04-22T01:42:53.629Z,101002.38
2019-04-22T01:45:19.255Z,101005.70
2019-04-22T01:47:57.723Z,101004.05
2019-04-22T01:50:27.771Z,101007.91
2019-04-22T01:53:06.290Z,101008.72
2019-04-22T01:55:39.112Z,101002.92
2019-04-22T01:58:08.990Z,100999.69
2019-04-22T02:00:49.368Z,101005.94
2019-04-22T02:03:30.603Z,101004.49
2019-04-22T02:05:59.201Z,101001.89
2019-04-22T02:08:42.101Z,101006.91
2019-04-22T02:11:08.078Z,101010.41
2019-04-22T02:13:44.805Z,101011.85
2019-04-22T02:16:15.089Z,101008.75
2019-04-22T02:18:58.425Z,101009.11
2019-04-22T02:21:21.566Z,101006.63
2019-04-22T02:23:53.924Z,101001.23
2019-04-22T02:26:38.233Z,100999.66
2019-04-22T02:29:10.932Z,100995.12
2019-04-22T02:31:44.585Z,100998.34
2019-04-22T02:36:50.881Z,101003.01
2019-04-22T02:39:24.607Z,100997.43
2019-04-22T02:42:09.416Z,100999.89
2019-04-22T02:55:01.323Z,100996.39
2019-04-22T02:57:45.065Z,100997.14
2019-04-22T03:00:05.542Z,101003.91
2019-04-22T03:05:22.016Z,101000.30
2019-04-22T03:07:56.126Z,101004.20
2019-04-22T03:12:51.965Z,100998.20
2019-04-22T03:15:38.058Z,100995.40
2019-04-22T03:18:10.013Z,101002.16
2019-04-22T03:20:42.770Z,101001.35
2019-04-22T03:23:31.782Z,100999.56
2019-04-22T03:28:32.921Z,101004.27
2019-04-22T03:31:58.221Z,101005.56
2019-04-22T03:39:31.987Z,101004.75
2019-04-22T03:44:31.293Z,101013.21
2019-04-22T03:47:16.162Z,101012.16
2019-04-22T03:52:10.767Z,101010.06
2019-04-22T03:54:45.750Z,101008.41
2019-04-22T04:02:29.319Z,101003.95
2019-04-22T04:05:25.799Z,100999.85
2019-04-22T04:10:25.304Z,101002.80
2019-04-22T04:15:18.667Z,100991.52
2019-04-22T04:17:51.893Z,100993.75
2019-04-22T04:20:34.394Z,101002.72
2019-04-22T04:25:42.852Z,100995.52
2019-04-22T04:30:40.027Z,100994.09
2019-04-22T04:35:57.945Z,100978.66
2019-04-22T04:38:32.272Z,100985.31
2019-04-22T04:41:06.474Z,100983.78
2019-04-22T04:43:46.541Z,100993.17
2019-04-22T04:51:33.234Z,101007.77
2019-04-22T04:54:08.071Z,101006.87
2019-04-22T04:56:38.491Z,101004.31
2019-04-22T04:59:19.304Z,100996.30
2019-04-22T05:01:44.838Z,101002.06
2019-04-22T05:04:26.374Z,101001.41
2019-04-22T05:09:22.366Z,101001.43
2019-04-22T05:12:01.738Z,100999.30
2019-04-22T05:14:28.699Z,100998.86
2019-04-22T05:17:15.738Z,101003.59
2019-04-22T05:19:37.539Z,100996.25
2019-04-22T05:22:28.371Z,100991.23
2019-04-22T05:24:43.997Z,100995.34
2019-04-22T05:30:10.071Z,100999.34
2019-04-22T05:32:30.999Z,101010.02
2019-04-22T05:35:00.219Z,101001.06
2019-04-22T05:40:16.332Z,101013.13
2019-04-22T05:42:48.300Z,101004.48
2019-04-22T05:45:23.084Z,101003.33
2019-04-22T05:50:24.069Z,101000.45
2019-04-22T05:55:41.547Z,101003.55
2019-04-22T05:58:18.843Z,101003.37
2019-04-22T06:03:46.134Z,101008.16
2019-04-22T06:06:18.184Z,101008.34
2019-04-22T06:08:55.844Z,101012.22
2019-04-22T06:11:29.503Z,101013.00
2019-04-22T06:14:05.368Z,101005.56
2019-04-22T06:16:38.139Z,101006.02
2019-04-22T06:19:14.051Z,101006.39
2019-04-22T06:22:07.112Z,101008.36
2019-04-22T06:24:26.016Z,101008.20
2019-04-22T06:27:10.256Z,101007.55
2019-04-22T06:29:41.203Z,101008.84
2019-04-22T06:32:23.234Z,101006.66
2019-04-22T06:34:42.098Z,101012.30
2019-04-22T06:37:20.720Z,101018.38
2019-04-22T06:39:45.268Z,101020.89
2019-04-22T06:42:28.406Z,101026.41
2019-04-22T06:44:58.007Z,101023.06
2019-04-22T06:47:43.893Z,101018.94
2019-04-22T06:50:07.664Z,101024.44
2019-04-22T06:52:39.171Z,101024.60
2019-04-22T06:55:16.590Z,101015.48
2019-04-22T06:57:53.600Z,101021.20
2019-04-22T07:00:24.701Z,101019.09
2019-04-22T07:05:43.793Z,101019.09
2019-04-22T07:08:37.081Z,101016.47
2019-04-22T07:13:23.264Z,101015.23
2019-04-22T07:16:03.993Z,101014.62
2019-04-22T07:18:31.179Z,101018.98
2019-04-22T07:21:02.754Z,101014.00
2019-04-22T07:23:44.666Z,101009.16
2019-04-22T07:26:11.810Z,101018.34
2019-04-22T07:28:46.704Z,101021.88
2019-04-22T07:31:16.232Z,101028.86
2019-04-22T07:33:56.837Z,101019.92
2019-04-22T07:39:03.986Z,101028.39
2019-04-22T07:41:37.924Z,101026.00
2019-04-22T07:44:20.708Z,101022.39
2019-04-22T07:46:51.627Z,101032.34
2019-04-22T07:49:22.133Z,101032.99
2019-04-22T07:51:51.370Z,101010.09
2019-04-22T07:54:25.825Z,101023.02
2019-04-22T07:57:08.740Z,101018.21
2019-04-22T07:59:40.794Z,101023.75
2019-04-22T08:02:16.116Z,101028.02
2019-04-22T08:04:58.996Z,101023.07
2019-04-22T08:07:24.218Z,101024.69
2019-04-22T08:10:12.493Z,101035.20
2019-04-22T08:15:05.794Z,101033.92
2019-04-22T08:17:55.994Z,101025.66
2019-04-22T08:20:19.036Z,101033.31
2019-04-22T08:22:51.040Z,101033.88
2019-04-22T08:25:26.834Z,101032.86
2019-04-22T08:27:57.190Z,101040.52
2019-04-22T08:33:11.157Z,101033.28
2019-04-22T08:36:01.592Z,101034.70
2019-04-22T08:41:22.930Z,101042.56
2019-04-22T08:51:36.290Z,101054.34
2019-04-22T08:56:58.374Z,101055.55
2019-04-22T09:01:49.186Z,101065.05
2019-04-22T09:04:23.382Z,101066.56
2019-04-22T09:07:14.125Z,101058.41
2019-04-22T09:09:39.417Z,101070.31
2019-04-22T09:12:15.924Z,101066.12
2019-04-22T09:17:21.402Z,101070.38
2019-04-22T09:19:55.976Z,101058.14
2019-04-22T09:22:26.294Z,101057.55
2019-04-22T09:25:03.303Z,101051.80
2019-04-22T09:27:44.305Z,101064.73
2019-04-22T09:30:15.744Z,101066.14
2019-04-22T09:35:24.866Z,101067.75
2019-04-22T09:40:30.125Z,101067.27
2019-04-22T09:43:05.025Z,101072.29
2019-04-22T09:45:43.227Z,101065.31
2019-04-22T09:48:23.738Z,101067.36
2019-04-22T09:50:51.992Z,101055.14
2019-04-22T09:53:34.031Z,101066.69
2019-04-22T09:56:03.690Z,101072.17
2019-04-22T09:58:40.317Z,101070.87
2019-04-22T10:03:56.221Z,101053.79
2019-04-22T10:06:27.778Z,101054.42
2019-04-22T10:09:26.289Z,101058.24
2019-04-22T10:14:08.760Z,101044.09
2019-04-22T10:16:39.489Z,101046.38
2019-04-22T10:19:18.645Z,101039.02
2019-04-22T10:22:08.437Z,101048.73
2019-04-22T10:24:19.164Z,101047.84
2019-04-22T10:26:59.942Z,101041.21
2019-04-22T10:35:55.365Z,101040.73
2019-04-22T10:38:32.507Z,101047.62
2019-04-22T10:41:16.464Z,101047.36
2019-04-22T10:50:42.908Z,101040.33
2019-04-22T10:53:31.342Z,101045.01
2019-04-22T10:56:05.262Z,101043.42
2019-04-22T10:58:56.202Z,101039.44
2019-04-22T11:01:38.623Z,101031.84
2019-04-22T11:04:13.210Z,101031.23
2019-04-22T11:06:53.071Z,101040.20
2019-04-22T11:09:23.392Z,101033.64
2019-04-22T11:12:04.474Z,101037.64
2019-04-22T11:14:34.823Z,101023.64
2019-04-22T11:17:08.983Z,101024.91
2019-04-22T11:19:43.509Z,101027.50
2019-04-22T11:22:22.045Z,101018.96
2019-04-22T11:24:51.230Z,101020.75
2019-04-22T11:27:25.377Z,101024.44
2019-04-22T11:29:59.570Z,101021.41
2019-04-22T11:32:32.841Z,101014.70
2019-04-22T11:35:09.871Z,101035.22
2019-04-22T11:37:43.826Z,101024.91
2019-04-22T11:40:28.533Z,101032.71
2019-04-22T11:42:56.403Z,101028.27
2019-04-22T11:45:33.253Z,101024.93
2019-04-22T11:48:07.154Z,101018.02
2019-04-22T11:50:41.920Z,101014.73
2019-04-22T11:53:14.865Z,101013.45
2019-04-22T11:55:48.949Z,101018.88
2019-04-22T11:58:22.632Z,101011.02
2019-04-22T12:00:57.043Z,101022.00
2019-04-22T12:03:31.655Z,101006.26
2019-04-22T12:06:04.409Z,101012.22
2019-04-22T12:08:37.392Z,101004.22
2019-04-22T12:11:11.652Z,100994.85
2019-04-22T12:13:46.294Z,101000.84
2019-04-22T12:16:19.301Z,101006.37
2019-04-22T12:18:53.369Z,100998.92
2019-04-22T12:21:27.131Z,100998.30
2019-04-22T12:24:01.021Z,100991.15
2019-04-22T12:26:34.537Z,100983.55
2019-04-22T12:29:08.941Z,100979.52
2019-04-22T12:31:42.354Z,100981.91
2019-04-22T12:34:15.757Z,100987.66
2019-04-22T12:36:49.044Z,100988.41
2019-04-22T12:39:22.982Z,100976.86
2019-04-22T12:41:56.232Z,100983.23
2019-04-22T12:44:30.527Z,100979.78
2019-04-22T12:47:05.701Z,100970.62
2019-04-22T12:49:40.978Z,100973.38
2019-04-22T12:52:24.080Z,100960.29
2019-04-22T12:54:49.265Z,100964.78
2019-04-22T12:57:22.832Z,100958.66
2019-04-22T12:59:57.451Z,100960.55
2019-04-22T13:02:31.300Z,100966.34
2019-04-22T13:05:05.930Z,100958.27
2019-04-22T13:07:39.857Z,100944.83
2019-04-22T13:10:17.769Z,100949.39
2019-04-22T13:12:51.066Z,100957.67
2019-04-22T13:15:24.223Z,100953.95
2019-04-22T13:18:05.776Z,100953.06
2019-04-22T13:20:32.381Z,100944.83
2019-04-22T13:23:05.329Z,100939.39
2019-04-22T13:25:38.904Z,100946.35
2019-04-22T13:28:13.301Z,100953.91
2019-04-22T13:30:48.533Z,100947.88
2019-04-22T13:33:22.991Z,100941.81
2019-04-22T13:35:57.536Z,100930.91
2019-04-22T13:38:31.129Z,100931.95
2019-04-22T13:41:16.506Z,100926.59
2019-04-22T13:43:38.949Z,100916.31
2019-04-22T13:46:12.475Z,100924.63
2019-04-22T13:49:08.768Z,100927.38
2019-04-22T13:56:50.648Z,100924.08
2019-04-22T13:59:15.055Z,100917.06
2019-04-22T14:01:43.028Z,100920.23
2019-04-22T14:04:20.959Z,100912.08
2019-04-22T14:06:54.632Z,100909.73
2019-04-22T14:09:28.364Z,100911.48
2019-04-22T14:12:05.836Z,100898.88
2019-04-22T14:14:39.261Z,100900.23
2019-04-22T14:17:11.452Z,100903.77
2019-04-22T14:19:44.746Z,100899.11
2019-04-22T14:22:17.859Z,100901.64
2019-04-22T14:24:52.413Z,100914.08
2019-04-22T14:27:38.135Z,100912.09
2019-04-22T14:30:01.982Z,100901.84
2019-04-22T14:32:37.852Z,100898.02
2019-04-22T14:35:13.505Z,100893.28
2019-04-22T14:37:47.820Z,100894.59
2019-04-22T14:40:22.960Z,100879.27
2019-04-22T14:43:13.211Z,100881.78
2019-04-22T14:46:02.873Z,100880.05
2019-04-22T14:48:33.034Z,100868.66
2019-04-22T14:50:57.690Z,100879.88
2019-04-22T14:53:36.163Z,100868.82
2019-04-22T14:55:48.655Z,100862.73
2019-04-22T14:58:22.656Z,100868.66
2019-04-22T15:00:56.919Z,100861.77
2019-04-22T15:03:31.418Z,100874.81
2019-04-22T15:06:04.399Z,100865.98
2019-04-22T15:08:39.247Z,100860.48
2019-04-22T15:11:13.208Z,100858.13
2019-04-22T15:13:47.462Z,100842.08
2019-04-22T15:16:38.177Z,100848.61
2019-04-22T15:19:16.036Z,100845.32
2019-04-22T15:21:50.338Z,100843.70
2019-04-22T15:24:27.548Z,100843.64
2019-04-22T15:27:02.620Z,100837.91
2019-04-22T15:29:35.578Z,100821.91
2019-04-22T15:32:09.346Z,100838.11
2019-04-22T15:34:43.583Z,100831.93
2019-04-22T15:37:17.818Z,100834.11
2019-04-22T15:39:52.317Z,100841.21
2019-04-22T15:42:28.696Z,100839.47
2019-04-22T15:45:02.591Z,100842.91
2019-04-22T15:47:37.453Z,100840.86
2019-04-22T15:50:12.121Z,100840.26
2019-04-22T15:52:50.026Z,100840.37
2019-04-22T15:55:20.733Z,100830.66
2019-04-22T15:57:54.212Z,100818.78
2019-04-22T16:00:38.282Z,100829.40
2019-04-22T16:03:04.879Z,100832.94
2019-04-22T16:05:37.758Z,100824.11
2019-04-22T16:08:10.874Z,100823.66
2019-04-22T16:10:43.983Z,100820.19
2019-04-22T16:13:23.063Z,100815.21
2019-04-22T16:15:52.361Z,100807.47
2019-04-22T16:18:26.533Z,100819.84
2019-04-22T16:21:00.323Z,100824.58
2019-04-22T16:23:36.473Z,100811.31
2019-04-22T16:26:15.301Z,100816.65
2019-04-22T16:28:49.314Z,100819.55
2019-04-22T16:31:25.106Z,100817.11
2019-04-22T16:33:58.430Z,100822.47
2019-04-22T16:36:31.213Z,100821.03
2019-04-22T16:39:04.715Z,100810.37
2019-04-22T16:41:38.959Z,100811.01
2019-04-22T16:44:14.333Z,100816.42
2019-04-22T16:46:47.747Z,100823.76
2019-04-22T16:49:21.578Z,100826.47
2019-04-22T16:51:54.290Z,100815.58
2019-04-22T16:54:27.883Z,100820.28
2019-04-22T16:57:01.883Z,100811.80
2019-04-22T16:59:35.190Z,100817.31
2019-04-22T17:02:19.500Z,100803.85
2019-04-22T17:04:59.672Z,100813.83
2019-04-22T17:07:34.387Z,100828.54
2019-04-22T17:10:10.072Z,100832.23
2019-04-22T17:12:53.228Z,100832.19
2019-04-22T17:15:18.887Z,100844.22
2019-04-22T17:17:54.935Z,100834.58
2019-04-22T17:20:29.146Z,100836.41
2019-04-22T17:23:02.185Z,100830.73
2019-04-22T17:25:36.317Z,100826.41
2019-04-22T17:28:09.812Z,100840.56
2019-04-22T17:30:43.802Z,100835.73
2019-04-22T17:33:16.960Z,100841.94
2019-04-22T17:35:50.345Z,100848.59
2019-04-22T17:38:36.515Z,100847.73
2019-04-22T17:41:11.889Z,100849.03
2019-04-22T17:43:59.107Z,100850.80
2019-04-22T17:46:27.835Z,100854.80
2019-04-22T17:49:10.242Z,100861.41
2019-04-22T17:51:49.935Z,100854.77
2019-04-22T17:54:20.943Z,100866.25
2019-04-22T17:56:50.986Z,100863.56
2019-04-22T17:59:29.476Z,100867.94
2019-04-22T18:01:58.291Z,100869.23
2019-04-22T18:04:15.894Z,100867.02
2019-04-22T18:07:15.392Z,100874.41
2019-04-22T18:10:14.669Z,100877.94
2019-04-22T18:12:27.222Z,100880.11
2019-04-22T18:14:59.663Z,100882.20
2019-04-22T18:17:30.489Z,100887.02
2019-04-22T18:19:58.250Z,100892.27
2019-04-22T18:22:29.751Z,100896.17
2019-04-22T18:25:04.980Z,100887.31
2019-04-22T18:30:17.966Z,100902.21
2019-04-22T18:32:57.060Z,100900.44
2019-04-22T18:35:30.860Z,100902.16
2019-04-22T18:38:12.327Z,100899.90
2019-04-22T18:40:47.732Z,100892.78
2019-04-22T18:43:24.579Z,100902.86
2019-04-22T18:46:00.264Z,100905.38
2019-04-22T18:48:21.828Z,100906.23
2019-04-22T18:51:13.435Z,100904.00
2019-04-22T18:53:48.330Z,100907.03
2019-04-22T18:56:19.534Z,100909.64
2019-04-22T18:58:47.743Z,100910.46
2019-04-22T19:01:12.491Z,100912.64
2019-04-22T19:03:55.178Z,100919.59
2019-04-22T19:06:56.962Z,100909.00
2019-04-22T19:09:22.157Z,100913.82
2019-04-22T19:12:03.168Z,100911.61
2019-04-22T19:14:24.310Z,100912.89
2019-04-22T19:17:12.164Z,100912.43
2019-04-22T19:22:03.516Z,100909.29
2019-04-22T19:24:40.060Z,100912.39
2019-04-22T19:27:16.167Z,100913.24
2019-04-22T19:29:55.837Z,100906.65
2019-04-22T19:32:25.374Z,100911.46
2019-04-22T19:34:56.913Z,100907.93
2019-04-22T19:37:33.196Z,100907.89
2019-04-22T19:40:30.689Z,100903.44
2019-04-22T19:42:53.463Z,100910.49
2019-04-22T19:45:16.225Z,100914.41
2019-04-22T19:47:56.570Z,100918.75
2019-04-22T19:50:34.993Z,100908.97
2019-04-22T19:53:05.048Z,100915.57
2019-04-22T19:55:43.695Z,100915.05
2019-04-22T19:58:18.287Z,100911.14
2019-04-22T20:01:13.467Z,100916.42
2019-04-22T20:04:12.169Z,100922.08
2019-04-22T20:06:41.362Z,100926.41
2019-04-22T20:09:20.651Z,100915.82
2019-04-22T20:11:55.209Z,100923.69
2019-04-22T20:14:33.731Z,100918.93
2019-04-22T20:16:58.511Z,100927.30
2019-04-22T20:22:09.688Z,100922.76
2019-04-22T20:24:29.256Z,100920.67
2019-04-22T20:27:28.519Z,100920.25
2019-04-22T20:30:13.774Z,100927.73
2019-04-22T20:32:26.196Z,100927.17
2019-04-22T20:35:04.069Z,100922.37
2019-04-22T20:37:42.648Z,100921.85
2019-04-22T20:40:11.681Z,100925.34
2019-04-22T20:42:55.645Z,100927.05
2019-04-22T20:45:22.843Z,100927.41
2019-04-22T20:47:52.498Z,100919.03
2019-04-22T20:50:36.377Z,100920.30
2019-04-22T20:53:16.180Z,100920.73
2019-04-22T20:55:46.433Z,100917.08
2019-04-22T20:58:24.090Z,100920.60
2019-04-22T21:00:46.271Z,100914.38
2019-04-22T21:03:22.322Z,100914.39
2019-04-22T21:05:52.562Z,100924.50
2019-04-22T21:08:36.082Z,100914.86
2019-04-22T21:11:06.038Z,100923.61
2019-04-22T21:13:41.114Z,100923.55
2019-04-22T21:16:22.283Z,100924.73
2019-04-22T21:18:47.271Z,100902.71
2019-04-22T21:21:31.729Z,100925.52
2019-04-22T21:23:59.668Z,100911.87
2019-04-22T21:26:39.680Z,100926.37
2019-04-22T21:29:12.996Z,100919.73
2019-04-22T21:31:51.161Z,100925.25
2019-04-22T21:34:22.103Z,100926.47
2019-04-22T21:37:05.732Z,100924.20
2019-04-22T21:39:30.219Z,100934.66
2019-04-22T21:42:09.424Z,100938.45
2019-04-22T21:44:42.007Z,100937.97
2019-04-22T21:47:22.397Z,100938.27
2019-04-22T21:50:09.814Z,100928.94
2019-04-22T21:52:27.590Z,100926.73
2019-04-22T21:55:06.934Z,100930.30
2019-04-22T21:57:47.822Z,100930.67
2019-04-22T22:00:25.301Z,100931.81
2019-04-22T22:02:51.838Z,100934.48
2019-04-22T22:05:21.755Z,100929.17
2019-04-22T22:07:53.474Z,100930.84
2019-04-22T22:10:43.423Z,100929.41
2019-04-22T22:13:11.102Z,100931.97
2019-04-22T22:15:47.625Z,100931.91
2019-04-22T22:18:16.571Z,100930.05
2019-04-22T22:21:12.935Z,100926.39
2019-04-22T22:23:39.442Z,100927.08
2019-04-22T22:26:04.510Z,100928.73
2019-04-22T22:28:51.404Z,100925.17
2019-04-22T22:31:24.083Z,100919.03
2019-04-22T22:33:47.965Z,100924.28
2019-04-22T22:36:20.723Z,100924.16
2019-04-22T22:38:56.174Z,100919.13
2019-04-22T22:41:12.233Z,100923.03
2019-04-22T22:43:50.672Z,100920.89
2019-04-22T22:46:31.853Z,100921.72
2019-04-22T22:49:20.434Z,100924.70
2019-04-22T22:51:57.434Z,100925.39
2019-04-22T22:54:23.644Z,100916.41
2019-04-22T22:57:09.091Z,100920.47
2019-04-22T22:59:36.183Z,100919.44
2019-04-22T23:02:08.172Z,100918.87
2019-04-22T23:04:45.622Z,100915.77
2019-04-22T23:07:24.290Z,100917.91
2019-04-22T23:09:55.950Z,100919.96
2019-04-22T23:12:34.772Z,100917.88
2019-04-22T23:14:59.065Z,100916.83
2019-04-22T23:17:24.167Z,100914.29
2019-04-22T23:19:54.759Z,100909.44
2019-04-22T23:22:39.609Z,100913.58
2019-04-22T23:25:27.297Z,100910.05
2019-04-22T23:28:00.099Z,100907.75
2019-04-22T23:30:40.076Z,100908.84
2019-04-22T23:33:27.724Z,100905.66
2019-04-22T23:35:56.611Z,100899.42
2019-04-22T23:38:42.554Z,100903.50
2019-04-22T23:41:26.254Z,100900.31
2019-04-22T23:43:56.261Z,100888.92
2019-04-22T23:46:24.234Z,100896.03
2019-04-22T23:48:53.518Z,100896.95
2019-04-22T23:51:30.983Z,100893.34
2019-04-22T23:54:07.082Z,100884.42
2019-04-22T23:56:35.927Z,100893.61
2019-04-22T23:59:23.439Z,100885.79
